sensor_id;sensor_type;location;lat;lon;timestamp;pressure;altitude;pressure_sealevel;temperature;humidity
68628;BME280;55611;48.602;9.490;2023-02-28T00:00:27;97470;;;1.7;56
68628;BME280;55611;48.602;9.490;2023-02-28T00:02:58;97470;;;1.7;56
68628;BME280;55611;48.602;9.490;2023-02-28T00:05:29;97470;;;1.7;56
68628;BME280;55611;48.602;9.490;2023-02-28T00:08:00;97470;;;1.7;56
68628;BME280;55611;48.602;9.490;2023-02-28T00:13:03;97470;;;1.7;56
68628;BME280;55611;48.602;9.490;2023-02-28T00:18:02;97470;;;1.8;56
68628;BME280;55611;48.602;9.490;2023-02-28T00:20:33;97470;;;1.8;56
68628;BME280;55611;48.602;9.490;2023-02-28T00:25:34;97470;;;1.6;56
68628;BME280;55611;48.602;9.490;2023-02-28T00:28:05;97470;;;1.6;56
68628;BME280;55611;48.602;9.490;2023-02-28T00:30:35;97460;;;1.7;56
68628;BME280;55611;48.602;9.490;2023-02-28T00:33:06;97470;;;1.7;56
68628;BME280;55611;48.602;9.490;2023-02-28T00:35:37;97460;;;1.7;56
68628;BME280;55611;48.602;9.490;2023-02-28T00:38:08;97460;;;1.8;56
68628;BME280;55611;48.602;9.490;2023-02-28T00:40:39;97460;;;1.7;56
68628;BME280;55611;48.602;9.490;2023-02-28T00:43:09;97470;;;1.7;56
68628;BME280;55611;48.602;9.490;2023-02-28T00:45:40;97470;;;1.8;56
68628;BME280;55611;48.602;9.490;2023-02-28T00:55:42;97470;;;1.7;56
68628;BME280;55611;48.602;9.490;2023-02-28T00:58:13;97460;;;1.8;55.5
68628;BME280;55611;48.602;9.490;2023-02-28T01:00:44;97470;;;1.7;56
68628;BME280;55611;48.602;9.490;2023-02-28T01:03:15;97470;;;1.6;56
68628;BME280;55611;48.602;9.490;2023-02-28T01:05:46;97470;;;1.7;56
68628;BME280;55611;48.602;9.490;2023-02-28T01:08:16;97460;;;1.7;56
68628;BME280;55611;48.602;9.490;2023-02-28T01:10:47;97460;;;1.7;56
68628;BME280;55611;48.602;9.490;2023-02-28T01:13:18;97460;;;1.7;56
68628;BME280;55611;48.602;9.490;2023-02-28T01:15:49;97460;;;1.7;56
68628;BME280;55611;48.602;9.490;2023-02-28T01:18:20;97460;;;1.7;56
68628;BME280;55611;48.602;9.490;2023-02-28T01:20:50;97460;;;1.7;55.5
68628;BME280;55611;48.602;9.490;2023-02-28T01:23:21;97460;;;1.7;56
68628;BME280;55611;48.602;9.490;2023-02-28T01:25:51;97460;;;1.7;55.5
68628;BME280;55611;48.602;9.490;2023-02-28T01:28:22;97460;;;1.7;55.5
68628;BME280;55611;48.602;9.490;2023-02-28T01:30:53;97460;;;1.7;55.5
68628;BME280;55611;48.602;9.490;2023-02-28T01:33:24;97460;;;1.6;56
68628;BME280;55611;48.602;9.490;2023-02-28T01:35:58;97460;;;1.7;56
68628;BME280;55611;48.602;9.490;2023-02-28T01:38:25;97460;;;1.7;56
68628;BME280;55611;48.602;9.490;2023-02-28T01:40:56;97450;;;1.6;56
68628;BME280;55611;48.602;9.490;2023-02-28T01:48:32;97450;;;1.6;56
68628;BME280;55611;48.602;9.490;2023-02-28T01:50:59;97450;;;1.6;56
68628;BME280;55611;48.602;9.490;2023-02-28T01:53:31;97440;;;1.5;56
68628;BME280;55611;48.602;9.490;2023-02-28T01:56:00;97440;;;1.4;56.5
68628;BME280;55611;48.602;9.490;2023-02-28T01:58:30;97440;;;1.5;56.5
68628;BME280;55611;48.602;9.490;2023-02-28T02:01:01;97440;;;1.5;56.5
68628;BME280;55611;48.602;9.490;2023-02-28T02:03:32;97440;;;1.4;56.5
68628;BME280;55611;48.602;9.490;2023-02-28T02:06:03;97440;;;1.5;56.5
68628;BME280;55611;48.602;9.490;2023-02-28T02:08:33;97430;;;1.5;56.5
68628;BME280;55611;48.602;9.490;2023-02-28T02:11:04;97430;;;1.5;56.5
68628;BME280;55611;48.602;9.490;2023-02-28T02:13:46;97430;;;1.6;56.5
68628;BME280;55611;48.602;9.490;2023-02-28T02:16:41;97430;;;1.6;56.5
68628;BME280;55611;48.602;9.490;2023-02-28T02:18:39;97430;;;1.5;56.5
68628;BME280;55611;48.602;9.490;2023-02-28T02:21:12;97420;;;1.5;56.5
68628;BME280;55611;48.602;9.490;2023-02-28T02:23:45;97420;;;1.6;56.5
68628;BME280;55611;48.602;9.490;2023-02-28T02:27:16;97410;;;1.6;56.5
68628;BME280;55611;48.602;9.490;2023-02-28T02:28:53;97410;;;1.5;56.5
68628;BME280;55611;48.602;9.490;2023-02-28T02:31:47;97410;;;1.6;56.5
68628;BME280;55611;48.602;9.490;2023-02-28T02:34:01;97410;;;1.6;56.5
68628;BME280;55611;48.602;9.490;2023-02-28T02:36:28;97410;;;1.5;56.5
68628;BME280;55611;48.602;9.490;2023-02-28T02:38:48;97410;;;1.4;56.5
68628;BME280;55611;48.602;9.490;2023-02-28T02:41:19;97410;;;1.4;56.5
68628;BME280;55611;48.602;9.490;2023-02-28T02:46:19;97410;;;1.4;56.5
68628;BME280;55611;48.602;9.490;2023-02-28T02:48:46;97410;;;1.5;56.5
68628;BME280;55611;48.602;9.490;2023-02-28T02:51:17;97410;;;1.5;56.5
68628;BME280;55611;48.602;9.490;2023-02-28T02:53:52;97410;;;1.3;56.5
68628;BME280;55611;48.602;9.490;2023-02-28T02:56:19;97410;;;1.3;56.5
68628;BME280;55611;48.602;9.490;2023-02-28T02:58:49;97420;;;1.3;56.5
68628;BME280;55611;48.602;9.490;2023-02-28T03:01:21;97420;;;1.2;56.5
68628;BME280;55611;48.602;9.490;2023-02-28T03:03:50;97420;;;1.4;56.5
68628;BME280;55611;48.602;9.490;2023-02-28T03:06:21;97420;;;1.4;56.5
68628;BME280;55611;48.602;9.490;2023-02-28T03:08:52;97420;;;1.5;56.5
68628;BME280;55611;48.602;9.490;2023-02-28T03:11:23;97420;;;1.5;56.5
68628;BME280;55611;48.602;9.490;2023-02-28T03:14:00;97420;;;1.5;56.5
68628;BME280;55611;48.602;9.490;2023-02-28T03:19:02;97430;;;1.5;56.5
68628;BME280;55611;48.602;9.490;2023-02-28T03:21:30;97420;;;1.6;56.5
68628;BME280;55611;48.602;9.490;2023-02-28T03:26:27;97420;;;1.6;56.5
68628;BME280;55611;48.602;9.490;2023-02-28T03:29:02;97420;;;1.5;56.5
68628;BME280;55611;48.602;9.490;2023-02-28T03:31:30;97430;;;1.6;56.5
68628;BME280;55611;48.602;9.490;2023-02-28T03:34:01;97420;;;1.5;56.5
68628;BME280;55611;48.602;9.490;2023-02-28T03:36:32;97420;;;1.5;56.5
68628;BME280;55611;48.602;9.490;2023-02-28T03:39:04;97420;;;1.6;56.5
68628;BME280;55611;48.602;9.490;2023-02-28T03:41:32;97420;;;1.6;56.5
68628;BME280;55611;48.602;9.490;2023-02-28T03:44:04;97410;;;1.5;56.5
68628;BME280;55611;48.602;9.490;2023-02-28T03:46:35;97410;;;1.4;56.5
68628;BME280;55611;48.602;9.490;2023-02-28T03:49:13;97410;;;1.4;56.5
68628;BME280;55611;48.602;9.490;2023-02-28T03:51:35;97410;;;1.5;56.5
68628;BME280;55611;48.602;9.490;2023-02-28T03:54:07;97420;;;1.5;56.5
68628;BME280;55611;48.602;9.490;2023-02-28T03:56:37;97420;;;1.6;56.5
68628;BME280;55611;48.602;9.490;2023-02-28T03:59:39;97410;;;1.5;56.5
68628;BME280;55611;48.602;9.490;2023-02-28T04:01:39;97420;;;1.6;56.5
68628;BME280;55611;48.602;9.490;2023-02-28T04:09:10;97410;;;1.7;56.5
68628;BME280;55611;48.602;9.490;2023-02-28T04:11:41;97420;;;1.6;56.5
68628;BME280;55611;48.602;9.490;2023-02-28T04:14:11;97420;;;1.6;56.5
68628;BME280;55611;48.602;9.490;2023-02-28T04:16:41;97420;;;1.6;56.5
68628;BME280;55611;48.602;9.490;2023-02-28T04:19:12;97420;;;1.7;56.5
68628;BME280;55611;48.602;9.490;2023-02-28T04:21:44;97410;;;1.6;56.5
68628;BME280;55611;48.602;9.490;2023-02-28T04:24:15;97420;;;1.7;56.5
68628;BME280;55611;48.602;9.490;2023-02-28T04:29:19;97420;;;1.7;56.5
68628;BME280;55611;48.602;9.490;2023-02-28T04:31:46;97410;;;1.6;56.5
68628;BME280;55611;48.602;9.490;2023-02-28T04:36:47;97420;;;1.6;56.5
68628;BME280;55611;48.602;9.490;2023-02-28T04:39:18;97420;;;1.6;56.5
68628;BME280;55611;48.602;9.490;2023-02-28T04:41:49;97410;;;1.6;56.5
68628;BME280;55611;48.602;9.490;2023-02-28T04:44:19;97420;;;1.5;56.5
68628;BME280;55611;48.602;9.490;2023-02-28T04:49:20;97420;;;1.6;56.5
68628;BME280;55611;48.602;9.490;2023-02-28T04:51:51;97420;;;1.6;56.5
68628;BME280;55611;48.602;9.490;2023-02-28T04:54:22;97410;;;1.6;56.5
68628;BME280;55611;48.602;9.490;2023-02-28T04:56:52;97420;;;1.6;56.5
68628;BME280;55611;48.602;9.490;2023-02-28T04:59:23;97410;;;1.6;56.5
68628;BME280;55611;48.602;9.490;2023-02-28T05:01:54;97420;;;1.6;56.5
68628;BME280;55611;48.602;9.490;2023-02-28T05:04:25;97410;;;1.6;56.5
68628;BME280;55611;48.602;9.490;2023-02-28T05:06:56;97410;;;1.7;56.5
68628;BME280;55611;48.602;9.490;2023-02-28T05:09:26;97410;;;1.8;56.5
68628;BME280;55611;48.602;9.490;2023-02-28T05:11:57;97410;;;1.8;56.5
68628;BME280;55611;48.602;9.490;2023-02-28T05:14:28;97410;;;1.8;56.5
68628;BME280;55611;48.602;9.490;2023-02-28T05:16:59;97410;;;1.8;56.5
68628;BME280;55611;48.602;9.490;2023-02-28T05:22:00;97420;;;1.8;56.5
68628;BME280;55611;48.602;9.490;2023-02-28T05:24:33;97420;;;1.8;56.5
68628;BME280;55611;48.602;9.490;2023-02-28T05:27:02;97420;;;1.9;56.5
68628;BME280;55611;48.602;9.490;2023-02-28T05:29:33;97420;;;2;56.5
68628;BME280;55611;48.602;9.490;2023-02-28T05:32:03;97420;;;1.9;56.5
68628;BME280;55611;48.602;9.490;2023-02-28T05:39:35;97430;;;2;56.5
68628;BME280;55611;48.602;9.490;2023-02-28T05:42:05;97430;;;2.1;56.5
68628;BME280;55611;48.602;9.490;2023-02-28T05:44:36;97430;;;2.1;56.5
68628;BME280;55611;48.602;9.490;2023-02-28T05:47:07;97440;;;2;56.5
68628;BME280;55611;48.602;9.490;2023-02-28T05:49:38;97440;;;2.1;56.5
68628;BME280;55611;48.602;9.490;2023-02-28T05:52:08;97440;;;2.2;56.5
68628;BME280;55611;48.602;9.490;2023-02-28T05:54:39;97430;;;2.1;56.5
68628;BME280;55611;48.602;9.490;2023-02-28T05:57:10;97440;;;2.2;56
68628;BME280;55611;48.602;9.490;2023-02-28T05:59:41;97440;;;2.2;56
68628;BME280;55611;48.602;9.490;2023-02-28T06:02:12;97440;;;2.2;56
68628;BME280;55611;48.602;9.490;2023-02-28T06:04:42;97440;;;2.2;56
68628;BME280;55611;48.602;9.490;2023-02-28T06:07:13;97440;;;2.2;56
68628;BME280;55611;48.602;9.490;2023-02-28T06:09:44;97440;;;2.2;56
68628;BME280;55611;48.602;9.490;2023-02-28T06:12:14;97440;;;2.2;56.5
68628;BME280;55611;48.602;9.490;2023-02-28T06:14:45;97440;;;2.2;56.5
68628;BME280;55611;48.602;9.490;2023-02-28T06:17:16;97430;;;2.2;56.5
68628;BME280;55611;48.602;9.490;2023-02-28T06:19:47;97440;;;2.3;56
68628;BME280;55611;48.602;9.490;2023-02-28T06:22:18;97440;;;2.2;56
68628;BME280;55611;48.602;9.490;2023-02-28T06:24:48;97450;;;2.3;56
68628;BME280;55611;48.602;9.490;2023-02-28T06:27:19;97450;;;2.3;56
68628;BME280;55611;48.602;9.490;2023-02-28T06:29:53;97460;;;2.3;56
68628;BME280;55611;48.602;9.490;2023-02-28T06:32:21;97460;;;2.3;56
68628;BME280;55611;48.602;9.490;2023-02-28T06:34:51;97470;;;2.3;56
68628;BME280;55611;48.602;9.490;2023-02-28T06:37:22;97470;;;2.3;56
68628;BME280;55611;48.602;9.490;2023-02-28T06:44:55;97470;;;2.4;56
68628;BME280;55611;48.602;9.490;2023-02-28T06:47:24;97480;;;2.4;56.5
68628;BME280;55611;48.602;9.490;2023-02-28T06:49:55;97480;;;2.4;56.5
68628;BME280;55611;48.602;9.490;2023-02-28T06:52:26;97480;;;2.4;56.5
68628;BME280;55611;48.602;9.490;2023-02-28T06:54:57;97480;;;2.4;56.5
68628;BME280;55611;48.602;9.490;2023-02-28T06:57:28;97480;;;2.4;56.5
68628;BME280;55611;48.602;9.490;2023-02-28T07:00:00;97480;;;2.4;56.5
68628;BME280;55611;48.602;9.490;2023-02-28T07:02:29;97480;;;2.4;56.5
68628;BME280;55611;48.602;9.490;2023-02-28T07:05:00;97480;;;2.4;56.5
68628;BME280;55611;48.602;9.490;2023-02-28T07:07:30;97480;;;2.4;56.5
68628;BME280;55611;48.602;9.490;2023-02-28T07:10:01;97500;;;2.5;56.5
68628;BME280;55611;48.602;9.490;2023-02-28T07:12:32;97490;;;2.4;56.5
68628;BME280;55611;48.602;9.490;2023-02-28T07:17:33;97500;;;2.3;56.5
68628;BME280;55611;48.602;9.490;2023-02-28T07:20:04;97500;;;2.3;57
68628;BME280;55611;48.602;9.490;2023-02-28T07:22:34;97500;;;2.4;56.5
68628;BME280;55611;48.602;9.490;2023-02-28T07:25:05;97500;;;2.5;56.5
68628;BME280;55611;48.602;9.490;2023-02-28T07:27:36;97500;;;2.5;56.5
68628;BME280;55611;48.602;9.490;2023-02-28T07:30:07;97510;;;2.5;56.5
68628;BME280;55611;48.602;9.490;2023-02-28T07:32:37;97510;;;2.5;56.5
68628;BME280;55611;48.602;9.490;2023-02-28T07:35:08;97500;;;2.5;56.5
68628;BME280;55611;48.602;9.490;2023-02-28T07:37:39;97500;;;2.5;56.5
68628;BME280;55611;48.602;9.490;2023-02-28T07:40:10;97500;;;2.5;56.5
68628;BME280;55611;48.602;9.490;2023-02-28T07:42:41;97500;;;2.4;56.5
68628;BME280;55611;48.602;9.490;2023-02-28T07:45:11;97500;;;2.4;56.5
68628;BME280;55611;48.602;9.490;2023-02-28T07:50:14;97510;;;2.6;56.5
68628;BME280;55611;48.602;9.490;2023-02-28T07:55:13;97510;;;2.6;56.5
68628;BME280;55611;48.602;9.490;2023-02-28T07:57:44;97500;;;2.6;56.5
68628;BME280;55611;48.602;9.490;2023-02-28T08:00:15;97500;;;2.7;56.5
68628;BME280;55611;48.602;9.490;2023-02-28T08:02:46;97500;;;2.7;56.5
68628;BME280;55611;48.602;9.490;2023-02-28T08:05:16;97510;;;2.7;56.5
68628;BME280;55611;48.602;9.490;2023-02-28T08:07:48;97510;;;2.7;56.5
68628;BME280;55611;48.602;9.490;2023-02-28T08:10:18;97520;;;2.8;56.5
68628;BME280;55611;48.602;9.490;2023-02-28T08:12:49;97520;;;2.9;56.5
68628;BME280;55611;48.602;9.490;2023-02-28T08:15:19;97520;;;2.9;56.5
68628;BME280;55611;48.602;9.490;2023-02-28T08:17:50;97520;;;2.9;56.5
68628;BME280;55611;48.602;9.490;2023-02-28T08:20:21;97530;;;2.9;56.5
68628;BME280;55611;48.602;9.490;2023-02-28T08:22:52;97530;;;3;56.5
68628;BME280;55611;48.602;9.490;2023-02-28T08:25:23;97530;;;3;56.5
68628;BME280;55611;48.602;9.490;2023-02-28T08:27:53;97520;;;3;56.5
68628;BME280;55611;48.602;9.490;2023-02-28T08:32:54;97520;;;3;56.5
68628;BME280;55611;48.602;9.490;2023-02-28T08:35:25;97520;;;3;56.5
68628;BME280;55611;48.602;9.490;2023-02-28T08:37:56;97520;;;3;56.5
68628;BME280;55611;48.602;9.490;2023-02-28T08:40:27;97520;;;3;56.5
68628;BME280;55611;48.602;9.490;2023-02-28T08:42:57;97520;;;3;57
68628;BME280;55611;48.602;9.490;2023-02-28T08:45:28;97520;;;3;57
68628;BME280;55611;48.602;9.490;2023-02-28T08:47:59;97520;;;3.1;57
68628;BME280;55611;48.602;9.490;2023-02-28T08:50:30;97530;;;3.1;57
68628;BME280;55611;48.602;9.490;2023-02-28T08:53:00;97520;;;3.1;57
68628;BME280;55611;48.602;9.490;2023-02-28T09:00:32;97530;;;3.1;57
68628;BME280;55611;48.602;9.490;2023-02-28T09:03:02;97530;;;3.1;57
68628;BME280;55611;48.602;9.490;2023-02-28T09:05:33;97530;;;3.2;57
68628;BME280;55611;48.602;9.490;2023-02-28T09:08:04;97530;;;3.4;57
68628;BME280;55611;48.602;9.490;2023-02-28T09:10:35;97530;;;3.5;57
68628;BME280;55611;48.602;9.490;2023-02-28T09:13:06;97540;;;3.5;57
68628;BME280;55611;48.602;9.490;2023-02-28T09:15:37;97540;;;3.5;57
68628;BME280;55611;48.602;9.490;2023-02-28T09:18:07;97540;;;3.6;57
68628;BME280;55611;48.602;9.490;2023-02-28T09:20:38;97550;;;3.7;57
68628;BME280;55611;48.602;9.490;2023-02-28T09:23:09;97540;;;3.7;57
68628;BME280;55611;48.602;9.490;2023-02-28T09:25:47;97540;;;3.5;57
68628;BME280;55611;48.602;9.490;2023-02-28T09:28:10;97540;;;3.7;57
68628;BME280;55611;48.602;9.490;2023-02-28T09:30:41;97540;;;3.6;57
68628;BME280;55611;48.602;9.490;2023-02-28T09:33:12;97540;;;3.7;57
68628;BME280;55611;48.602;9.490;2023-02-28T09:35:42;97540;;;3.8;57
68628;BME280;55611;48.602;9.490;2023-02-28T09:38:13;97550;;;3.8;57
68628;BME280;55611;48.602;9.490;2023-02-28T09:43:14;97550;;;4;57
68628;BME280;55611;48.602;9.490;2023-02-28T09:45:53;97550;;;4;57
68628;BME280;55611;48.602;9.490;2023-02-28T09:48:18;97550;;;4;57
68628;BME280;55611;48.602;9.490;2023-02-28T09:50:48;97560;;;4.1;57
68628;BME280;55611;48.602;9.490;2023-02-28T09:53:22;97550;;;4.2;57
68628;BME280;55611;48.602;9.490;2023-02-28T09:55:49;97560;;;4.1;56.5
68628;BME280;55611;48.602;9.490;2023-02-28T09:58:28;97560;;;4.2;56.5
68628;BME280;55611;48.602;9.490;2023-02-28T10:00:54;97570;;;4.2;56.5
68628;BME280;55611;48.602;9.490;2023-02-28T10:03:25;97560;;;4.3;56.5
68628;BME280;55611;48.602;9.490;2023-02-28T10:05:54;97570;;;4.3;56.5
68628;BME280;55611;48.602;9.490;2023-02-28T10:08:24;97570;;;4.4;56.5
68628;BME280;55611;48.602;9.490;2023-02-28T10:10:55;97570;;;4.4;57
68628;BME280;55611;48.602;9.490;2023-02-28T10:13:25;97570;;;4.5;57
68628;BME280;55611;48.602;9.490;2023-02-28T10:15:57;97570;;;4.7;56.5
68628;BME280;55611;48.602;9.490;2023-02-28T10:18:28;97580;;;4.7;56.5
68628;BME280;55611;48.602;9.490;2023-02-28T10:20:56;97570;;;4.8;56.5
68628;BME280;55611;48.602;9.490;2023-02-28T10:23:28;97580;;;4.9;56.5
68628;BME280;55611;48.602;9.490;2023-02-28T10:26:00;97580;;;4.8;56.5
68628;BME280;55611;48.602;9.490;2023-02-28T10:28:29;97580;;;4.8;56.5
68628;BME280;55611;48.602;9.490;2023-02-28T10:30:59;97580;;;4.9;56.5
68628;BME280;55611;48.602;9.490;2023-02-28T10:33:32;97580;;;4.9;56.5
68628;BME280;55611;48.602;9.490;2023-02-28T10:36:01;97580;;;5.1;56.5
68628;BME280;55611;48.602;9.490;2023-02-28T10:38:34;97570;;;5.2;56.5
68628;BME280;55611;48.602;9.490;2023-02-28T10:41:04;97580;;;5.3;56.5
68628;BME280;55611;48.602;9.490;2023-02-28T10:43:33;97580;;;5.4;56.5
68628;BME280;55611;48.602;9.490;2023-02-28T10:46:09;97580;;;5.5;56.5
68628;BME280;55611;48.602;9.490;2023-02-28T10:48:43;97580;;;5.6;56.5
68628;BME280;55611;48.602;9.490;2023-02-28T10:51:07;97570;;;5.6;56.5
68628;BME280;55611;48.602;9.490;2023-02-28T10:53:38;97580;;;5.4;56.5
68628;BME280;55611;48.602;9.490;2023-02-28T10:56:16;97580;;;5.6;56.5
68628;BME280;55611;48.602;9.490;2023-02-28T10:59:41;97570;;;5.6;56.5
68628;BME280;55611;48.602;9.490;2023-02-28T11:01:12;97570;;;5.7;56.5
68628;BME280;55611;48.602;9.490;2023-02-28T11:03:39;97570;;;5.8;56.5
68628;BME280;55611;48.602;9.490;2023-02-28T11:06:15;97580;;;5.7;57
68628;BME280;55611;48.602;9.490;2023-02-28T11:08:57;97580;;;5.5;56.5
68628;BME280;55611;48.602;9.490;2023-02-28T11:11:11;97580;;;5.3;56.5
68628;BME280;55611;48.602;9.490;2023-02-28T11:13:42;97580;;;5.3;56.5
68628;BME280;55611;48.602;9.490;2023-02-28T11:16:13;97580;;;5.2;56.5
68628;BME280;55611;48.602;9.490;2023-02-28T11:18:48;97580;;;5.2;56.5
68628;BME280;55611;48.602;9.490;2023-02-28T11:21:15;97580;;;5.3;56.5
68628;BME280;55611;48.602;9.490;2023-02-28T11:23:45;97580;;;5.4;56.5
68628;BME280;55611;48.602;9.490;2023-02-28T11:26:16;97580;;;5.6;56.5
68628;BME280;55611;48.602;9.490;2023-02-28T11:28:47;97570;;;5.7;56.5
68628;BME280;55611;48.602;9.490;2023-02-28T11:33:49;97560;;;5.9;56.5
68628;BME280;55611;48.602;9.490;2023-02-28T11:36:20;97560;;;6.1;57
68628;BME280;55611;48.602;9.490;2023-02-28T11:38:49;97550;;;6.4;57
68628;BME280;55611;48.602;9.490;2023-02-28T11:43:56;97540;;;6.5;57
68628;BME280;55611;48.602;9.490;2023-02-28T11:46:25;97550;;;6.4;57
68628;BME280;55611;48.602;9.490;2023-02-28T11:49:03;97540;;;6.4;56.5
68628;BME280;55611;48.602;9.490;2023-02-28T11:52:02;97540;;;6.5;56.5
68628;BME280;55611;48.602;9.490;2023-02-28T11:54:06;97540;;;6.5;56.5
68628;BME280;55611;48.602;9.490;2023-02-28T11:59:01;97530;;;6.4;56.5
68628;BME280;55611;48.602;9.490;2023-02-28T12:01:32;97530;;;6.4;56.5
68628;BME280;55611;48.602;9.490;2023-02-28T12:04:35;97530;;;6.3;56.5
68628;BME280;55611;48.602;9.490;2023-02-28T12:06:31;97530;;;6.3;56.5
68628;BME280;55611;48.602;9.490;2023-02-28T12:11:33;97530;;;6.5;56.5
68628;BME280;55611;48.602;9.490;2023-02-28T12:14:20;97520;;;6.6;56.5
68628;BME280;55611;48.602;9.490;2023-02-28T12:16:35;97530;;;6.7;56.5
68628;BME280;55611;48.602;9.490;2023-02-28T12:19:07;97520;;;6.7;56.5
68628;BME280;55611;48.602;9.490;2023-02-28T12:21:37;97520;;;6.7;56.5
68628;BME280;55611;48.602;9.490;2023-02-28T12:24:15;97520;;;6.8;56.5
68628;BME280;55611;48.602;9.490;2023-02-28T12:26:36;97520;;;6.9;56.5
68628;BME280;55611;48.602;9.490;2023-02-28T12:29:40;97510;;;6.9;56.5
68628;BME280;55611;48.602;9.490;2023-02-28T12:31:36;97510;;;7;56.5
68628;BME280;55611;48.602;9.490;2023-02-28T12:34:09;97500;;;7;56
68628;BME280;55611;48.602;9.490;2023-02-28T12:36:37;97500;;;7;56
68628;BME280;55611;48.602;9.490;2023-02-28T12:39:10;97500;;;7;56
68628;BME280;55611;48.602;9.490;2023-02-28T12:41:41;97500;;;7.1;56
68628;BME280;55611;48.602;9.490;2023-02-28T12:44:15;97500;;;7.3;56
68628;BME280;55611;48.602;9.490;2023-02-28T12:46:42;97500;;;7.3;56
68628;BME280;55611;48.602;9.490;2023-02-28T12:51:41;97500;;;7.3;56
68628;BME280;55611;48.602;9.490;2023-02-28T12:54:23;97490;;;7.2;56
68628;BME280;55611;48.602;9.490;2023-02-28T12:56:48;97490;;;7.3;56
68628;BME280;55611;48.602;9.490;2023-02-28T12:59:18;97500;;;7.3;56
68628;BME280;55611;48.602;9.490;2023-02-28T13:01:56;97490;;;7.5;56
68628;BME280;55611;48.602;9.490;2023-02-28T13:04:27;97490;;;7.4;56
68628;BME280;55611;48.602;9.490;2023-02-28T13:09:17;97490;;;7.3;56
68628;BME280;55611;48.602;9.490;2023-02-28T13:11:48;97490;;;7.3;56
68628;BME280;55611;48.602;9.490;2023-02-28T13:14:20;97490;;;7.4;56
68628;BME280;55611;48.602;9.490;2023-02-28T13:17:20;97480;;;7.5;56
68628;BME280;55611;48.602;9.490;2023-02-28T13:19:20;97490;;;7.7;56
68628;BME280;55611;48.602;9.490;2023-02-28T13:21:51;97480;;;7.7;56
68628;BME280;55611;48.602;9.490;2023-02-28T13:24:36;97490;;;7.6;56
68628;BME280;55611;48.602;9.490;2023-02-28T13:27:10;97480;;;7.5;56
68628;BME280;55611;48.602;9.490;2023-02-28T13:29:31;97480;;;7.6;56
68628;BME280;55611;48.602;9.490;2023-02-28T13:34:25;97480;;;7.7;56
68628;BME280;55611;48.602;9.490;2023-02-28T13:37:32;97480;;;7.6;56
68628;BME280;55611;48.602;9.490;2023-02-28T13:44:28;97480;;;7.7;56
68628;BME280;55611;48.602;9.490;2023-02-28T13:49:29;97480;;;7.8;56
68628;BME280;55611;48.602;9.490;2023-02-28T13:52:12;97480;;;7.8;56
68628;BME280;55611;48.602;9.490;2023-02-28T13:54:44;97480;;;7.8;56
68628;BME280;55611;48.602;9.490;2023-02-28T13:57:09;97480;;;7.7;56
68628;BME280;55611;48.602;9.490;2023-02-28T13:59:35;97480;;;7.7;56
68628;BME280;55611;48.602;9.490;2023-02-28T14:02:25;97480;;;7.7;56
68628;BME280;55611;48.602;9.490;2023-02-28T14:04:45;97480;;;7.6;56
68628;BME280;55611;48.602;9.490;2023-02-28T14:07:05;97480;;;7.7;56
68628;BME280;55611;48.602;9.490;2023-02-28T14:17:08;97480;;;7.7;55.5
68628;BME280;55611;48.602;9.490;2023-02-28T14:19:38;97480;;;7.6;55.5
68628;BME280;55611;48.602;9.490;2023-02-28T14:22:15;97480;;;7.6;55.5
68628;BME280;55611;48.602;9.490;2023-02-28T14:27:28;97490;;;7.6;55.5
68628;BME280;55611;48.602;9.490;2023-02-28T14:29:59;97490;;;7.8;55.5
68628;BME280;55611;48.602;9.490;2023-02-28T14:32:21;97490;;;7.8;55.5
68628;BME280;55611;48.602;9.490;2023-02-28T14:34:56;97490;;;7.8;55.5
68628;BME280;55611;48.602;9.490;2023-02-28T14:37:26;97490;;;7.9;55.5
68628;BME280;55611;48.602;9.490;2023-02-28T14:39:48;97490;;;7.9;55.5
68628;BME280;55611;48.602;9.490;2023-02-28T14:42:27;97490;;;7.9;55.5
68628;BME280;55611;48.602;9.490;2023-02-28T14:44:53;97490;;;8;55.5
68628;BME280;55611;48.602;9.490;2023-02-28T14:47:19;97490;;;7.9;55.5
68628;BME280;55611;48.602;9.490;2023-02-28T14:49:50;97500;;;7.8;55.5
68628;BME280;55611;48.602;9.490;2023-02-28T14:52:22;97490;;;7.9;55.5
68628;BME280;55611;48.602;9.490;2023-02-28T14:54:52;97490;;;7.8;55.5
68628;BME280;55611;48.602;9.490;2023-02-28T14:57:23;97500;;;7.9;55.5
68628;BME280;55611;48.602;9.490;2023-02-28T15:00:00;97490;;;7.8;55.5
68628;BME280;55611;48.602;9.490;2023-02-28T15:02:23;97490;;;7.8;55.5
68628;BME280;55611;48.602;9.490;2023-02-28T15:05:01;97500;;;7.7;55.5
68628;BME280;55611;48.602;9.490;2023-02-28T15:07:23;97500;;;7.8;55
68628;BME280;55611;48.602;9.490;2023-02-28T15:10:06;97500;;;7.7;55
68628;BME280;55611;48.602;9.490;2023-02-28T15:12:24;97500;;;7.8;55
68628;BME280;55611;48.602;9.490;2023-02-28T15:14:55;97500;;;7.8;55
68628;BME280;55611;48.602;9.490;2023-02-28T15:17:26;97500;;;7.8;55
68628;BME280;55611;48.602;9.490;2023-02-28T15:19:56;97500;;;7.8;55
68628;BME280;55611;48.602;9.490;2023-02-28T15:22:28;97500;;;7.8;55
68628;BME280;55611;48.602;9.490;2023-02-28T15:24:57;97500;;;7.7;55
68628;BME280;55611;48.602;9.490;2023-02-28T15:27:28;97510;;;7.8;55
68628;BME280;55611;48.602;9.490;2023-02-28T15:29:59;97510;;;7.7;55
68628;BME280;55611;48.602;9.490;2023-02-28T15:32:30;97510;;;7.7;55.5
68628;BME280;55611;48.602;9.490;2023-02-28T15:35:17;97510;;;7.7;55.5
68628;BME280;55611;48.602;9.490;2023-02-28T15:37:37;97510;;;7.7;55.5
68628;BME280;55611;48.602;9.490;2023-02-28T15:40:05;97510;;;7.8;55.5
68628;BME280;55611;48.602;9.490;2023-02-28T15:42:31;97510;;;7.7;55.5
68628;BME280;55611;48.602;9.490;2023-02-28T15:45:01;97510;;;7.7;55.5
68628;BME280;55611;48.602;9.490;2023-02-28T15:47:32;97510;;;7.6;55.5
68628;BME280;55611;48.602;9.490;2023-02-28T15:50:04;97510;;;7.6;55.5
68628;BME280;55611;48.602;9.490;2023-02-28T15:52:39;97510;;;7.6;55.5
68628;BME280;55611;48.602;9.490;2023-02-28T15:55:08;97510;;;7.6;55
68628;BME280;55611;48.602;9.490;2023-02-28T15:57:34;97510;;;7.5;55
68628;BME280;55611;48.602;9.490;2023-02-28T16:00:05;97510;;;7.4;55
68628;BME280;55611;48.602;9.490;2023-02-28T16:02:36;97500;;;7.4;55
68628;BME280;55611;48.602;9.490;2023-02-28T16:05:24;97510;;;7.3;55
68628;BME280;55611;48.602;9.490;2023-02-28T16:07:37;97510;;;7.3;55
68628;BME280;55611;48.602;9.490;2023-02-28T16:10:07;97510;;;7.2;55
68628;BME280;55611;48.602;9.490;2023-02-28T16:12:37;97510;;;7.1;55
68628;BME280;55611;48.602;9.490;2023-02-28T16:15:09;97510;;;7.1;55
68628;BME280;55611;48.602;9.490;2023-02-28T16:17:38;97510;;;7;55
68628;BME280;55611;48.602;9.490;2023-02-28T16:20:17;97520;;;6.9;55
68628;BME280;55611;48.602;9.490;2023-02-28T16:22:39;97520;;;6.9;55